Historyczne dane pomiarowe

Dodano dane terminowe – wersja testowa.

Dane z okresu 1951-2019

Wersja bazy: 1.34 [2019-03-16, lista zmian], aktualizacja planowana na 2019-04-15

Dane meteo z obszaru Polski uzyskane na podstawie danych udostępnionych przez Instytut Meteorologii i Gospodarki Wodnej – Państwowy Instytut Badawczy.

 

Wybierz Datę:    

       

TemperaturaWilgotnośćWiatrCiśnienieOpadyŚniegCzas trwania zjawisk
 Stacja t tx tn tng RH VA  wxwx mslp ppp RRR   cm mm wxwxwxwxwxwxwx
1987-07-08 21.0 27.9 12.5 8.0 64.8- 2.0 3.0---- 1.0------------
1987-07-07 19.2 26.5 7.7 4.2 62.8- 1.3 2.3---- 0.0------------
1987-07-06 18.7 24.2 8.5 4.9 59.5- 1.0 1.7---- 0.0------------
1987-07-05 15.9 19.4 10.7 7.9 74.0- 4.3 1.7---- 0.0------------
1987-07-04 18.9 23.6 12.0 8.9 70.3- 3.0 3.0---- 0.1------------
1987-07-03 18.2 21.0 14.3 11.6 73.3- 7.3 2.0---- 0.0------------
1987-07-02 18.0 26.7 15.6 16.5 80.3- 7.7 2.3---- 0.0------------
1987-07-01 24.4 28.4 17.0 14.8 73.8- 1.7 2.0---- 0.0------------
1987-06-30 22.8 29.3 14.5 12.0 74.8- 1.3 1.0---- 0.0------------
1987-06-29 21.0 25.6 15.6 12.4 75.8- 2.0 1.3---- 0.0------------
1987-06-28 18.8 23.6 9.9 8.4 72.8- 4.7 2.7---- 0.0------------
1987-06-27 16.9 21.2 14.7 12.7 85.0- 5.7 2.7---- 0.6------------
1987-06-26 16.6 23.6 9.9 7.0 70.3- 4.7 1.7---- 9.0------------
1987-06-25 14.8 18.1 12.9 12.2 77.0- 3.7 4.3---- 0.0------------
1987-06-24 16.0 20.3 11.9 10.5 72.8- 5.0 3.7---- 2.4------------
1987-06-23 15.5 19.8 12.0 12.0 77.8- 5.7 2.3---- 0.0------------
1987-06-22 15.6 19.8 11.5 10.4 84.3- 7.0 3.0---- 2.6------------
1987-06-21 17.2 23.4 8.7 5.1 72.0- 4.7 1.7---- 0.0------------
1987-06-20 15.4 21.4 7.4 4.0 67.3- 4.0 2.3---- 0.0------------
1987-06-19 12.4 17.5 7.9 6.6 68.3- 4.3 3.0---- 0.3------------
1987-06-18 10.4 13.7 6.4 3.5 78.3- 4.0 4.3---- 0.5------------
1987-06-17 12.0 15.4 8.7 7.2 69.0- 3.3 3.7---- 0.0------------
1987-06-16 13.4 23.2 9.4 11.1 82.8- 6.3 5.7---- 3.0------------
1987-06-15 20.5 28.4 14.4 11.0 78.5- 5.7 2.3---- 9.8------------
1987-06-14 21.2 25.9 14.9 12.0 73.5- 1.7 2.0---- 0.3------------
1987-06-13 20.7 26.1 15.5 11.9 66.5- 2.0 1.7---- 0.0------------
1987-06-12 19.0 26.0 8.2 6.3 65.8- 2.3 1.0---- 0.0------------
1987-06-11 15.3 21.8 8.0 6.4 69.5- 1.0 0.7---- 0.0------------
1987-06-10 14.5 18.5 11.7 12.0 84.0- 5.7 1.0---- 0.0------------
1987-06-09 12.8 17.8 10.5 10.2 82.8- 8.0 1.0---- 3.7------------
1987-06-08 19.0 25.6 14.5 15.0 79.8- 4.3 3.7---- 6.6------------
1987-06-07 19.6 24.4 12.9 9.5 62.3- 5.3 4.0---- 7.7------------
1987-06-06 13.9 19.5 10.0 8.5 69.3- 2.7 3.7---- 0.0------------
1987-06-05 12.7 14.3 11.9 11.9 91.0- 7.0 3.0---- 12.1------------
1987-06-04 14.8 19.4 11.6 10.4 83.3- 6.0 2.7---- 24.9------------
1987-06-03 11.0 13.0 8.0 5.9 86.3- 7.0 2.0---- 1.5------------
1987-06-02 10.8 14.2 8.6 5.5 82.0- 7.0 2.7---- 2.3------------
1987-06-01 11.0 16.7 5.2 0.5 72.8- 4.0 3.0---- 1.1------------
1987-05-31 9.3 11.9 5.9 4.6 75.5- 6.3 1.0---- 0.0------------
1987-05-30 8.5 14.2 7.8 3.4 87.5- 7.3 1.3---- 3.9------------
1987-05-29 10.6 15.0 5.4 1.9 64.8- 2.0 2.3---- 0.0------------
1987-05-28 12.4 16.5 8.7 5.2 81.3- 5.3 3.0---- 8.1------------
1987-05-27 13.0 20.7 3.7 0.2 66.8- 3.0 1.3---- 0.0------------
1987-05-26 11.4 18.2 4.3 0.7 62.8- 1.7 1.0---- 0.0------------
1987-05-25 10.8 15.9 3.4 -0.2 74.0- 2.3 2.3---- 0.0------------
1987-05-24 10.6 15.7 8.0 7.5 79.5- 5.0 3.0---- 0.0------------
1987-05-23 10.4 11.7 9.0 9.2 81.8- 8.0 4.3---- 0.0------------
1987-05-22 7.8 10.2 6.0 6.0 91.8- 8.0 3.7---- 3.5------------
1987-05-21 8.4 10.7 6.0 5.9 77.0- 7.7 3.0---- 12.9------------
1987-05-20 9.7 15.8 6.4 3.0 88.3- 8.0 2.0---- 8.8------------
1987-05-19 14.2 17.3 9.3 6.2 80.5- 5.0 2.3---- 0.0------------
1987-05-18 10.8 17.5 4.1 0.5 84.3- 7.3 2.0---- 6.3------------
1987-05-17 10.4 15.0 6.3 5.1 61.8- 2.7 3.0---- 1.2------------
1987-05-16 9.9 14.8 6.0 2.4 79.0- 7.3 2.0---- 5.3------------
1987-05-15 9.4 15.7 1.4 -0.9 67.8- 3.3 3.7---- 0.0------------
1987-05-14 6.5 10.3 5.7 5.6 89.5- 6.7 2.3---- 6.0------------
1987-05-13 11.6 16.4 10.0 9.9 83.5- 7.7 2.3---- 27.8------------
1987-05-12 11.2 20.7 2.0 -1.5 62.8- 3.3 4.0---- 0.1------------
1987-05-11 10.3 20.6 6.8 6.1 67.8- 5.0 4.3---- 0.0------------
1987-05-10 15.6 22.8 4.4 0.6 49.5- 3.0 5.3---- 2.7------------
440.8 ms

 

Źródłem pochodzenia danych jest Instytut Meteorologii i Gospodarki Wodnej – Państwowy Instytut Badawczy. Dane Instytutu Meteorologii i Gospodarki Wodnej – Państwowego Instytutu Badawczego zostały przetworzone.

Dane źródłowe można odnaleźć na stronie https://dane.imgw.pl